sensor_id;sensor_type;location;lat;lon;timestamp;P1;durP1;ratioP1;P2;durP2;ratioP2
17983;SDS011;9117;52.420;20.728;2023-03-01T00:01:17;82.77;;;30.07;;
17983;SDS011;9117;52.420;20.728;2023-03-01T00:03:46;89.17;;;30.00;;
17983;SDS011;9117;52.420;20.728;2023-03-01T00:06:15;83.37;;;31.03;;
17983;SDS011;9117;52.420;20.728;2023-03-01T00:08:43;84.13;;;30.30;;
17983;SDS011;9117;52.420;20.728;2023-03-01T00:11:14;77.63;;;29.90;;
17983;SDS011;9117;52.420;20.728;2023-03-01T00:13:43;83.27;;;31.70;;
17983;SDS011;9117;52.420;20.728;2023-03-01T00:16:14;80.70;;;31.10;;
17983;SDS011;9117;52.420;20.728;2023-03-01T00:18:43;88.93;;;30.77;;
17983;SDS011;9117;52.420;20.728;2023-03-01T00:21:12;79.30;;;30.23;;
17983;SDS011;9117;52.420;20.728;2023-03-01T00:23:40;88.50;;;30.23;;
17983;SDS011;9117;52.420;20.728;2023-03-01T00:26:09;79.00;;;31.13;;
17983;SDS011;9117;52.420;20.728;2023-03-01T00:28:41;78.87;;;28.67;;
17983;SDS011;9117;52.420;20.728;2023-03-01T00:31:10;78.80;;;30.13;;
17983;SDS011;9117;52.420;20.728;2023-03-01T00:33:40;75.53;;;30.03;;
17983;SDS011;9117;52.420;20.728;2023-03-01T00:36:09;77.17;;;27.93;;
17983;SDS011;9117;52.420;20.728;2023-03-01T00:38:39;68.17;;;26.83;;
17983;SDS011;9117;52.420;20.728;2023-03-01T00:41:12;67.07;;;26.20;;
17983;SDS011;9117;52.420;20.728;2023-03-01T00:43:43;74.67;;;28.73;;
17983;SDS011;9117;52.420;20.728;2023-03-01T00:46:12;82.20;;;29.83;;
17983;SDS011;9117;52.420;20.728;2023-03-01T00:48:42;78.10;;;28.87;;
17983;SDS011;9117;52.420;20.728;2023-03-01T00:51:12;72.03;;;29.30;;
17983;SDS011;9117;52.420;20.728;2023-03-01T00:53:41;74.27;;;28.23;;
17983;SDS011;9117;52.420;20.728;2023-03-01T00:56:10;72.57;;;27.97;;
17983;SDS011;9117;52.420;20.728;2023-03-01T00:58:40;64.17;;;23.93;;
17983;SDS011;9117;52.420;20.728;2023-03-01T01:01:11;72.37;;;27.20;;
17983;SDS011;9117;52.420;20.728;2023-03-01T01:03:45;70.53;;;26.57;;
17983;SDS011;9117;52.420;20.728;2023-03-01T01:06:15;70.93;;;28.87;;
17983;SDS011;9117;52.420;20.728;2023-03-01T01:08:44;68.60;;;27.17;;
17983;SDS011;9117;52.420;20.728;2023-03-01T01:11:13;76.53;;;28.63;;
17983;SDS011;9117;52.420;20.728;2023-03-01T01:13:43;71.10;;;27.23;;
17983;SDS011;9117;52.420;20.728;2023-03-01T01:16:13;67.63;;;25.20;;
17983;SDS011;9117;52.420;20.728;2023-03-01T01:18:43;63.87;;;26.50;;
17983;SDS011;9117;52.420;20.728;2023-03-01T01:21:13;78.47;;;26.53;;
17983;SDS011;9117;52.420;20.728;2023-03-01T01:23:43;69.50;;;27.73;;
17983;SDS011;9117;52.420;20.728;2023-03-01T01:26:13;64.73;;;25.03;;
17983;SDS011;9117;52.420;20.728;2023-03-01T01:28:43;69.03;;;26.10;;
17983;SDS011;9117;52.420;20.728;2023-03-01T01:31:12;78.83;;;25.43;;
17983;SDS011;9117;52.420;20.728;2023-03-01T01:33:41;66.57;;;24.27;;
17983;SDS011;9117;52.420;20.728;2023-03-01T01:36:09;64.37;;;24.53;;
17983;SDS011;9117;52.420;20.728;2023-03-01T01:38:38;60.93;;;23.80;;
17983;SDS011;9117;52.420;20.728;2023-03-01T01:41:08;71.33;;;24.97;;
17983;SDS011;9117;52.420;20.728;2023-03-01T01:43:39;61.63;;;22.73;;
17983;SDS011;9117;52.420;20.728;2023-03-01T01:46:13;71.37;;;26.00;;
17983;SDS011;9117;52.420;20.728;2023-03-01T01:48:49;68.10;;;26.03;;
17983;SDS011;9117;52.420;20.728;2023-03-01T01:51:23;68.57;;;25.53;;
17983;SDS011;9117;52.420;20.728;2023-03-01T01:53:56;62.77;;;25.60;;
17983;SDS011;9117;52.420;20.728;2023-03-01T01:56:28;69.37;;;25.43;;
17983;SDS011;9117;52.420;20.728;2023-03-01T01:58:57;65.50;;;25.53;;
17983;SDS011;9117;52.420;20.728;2023-03-01T02:01:27;68.00;;;27.00;;
17983;SDS011;9117;52.420;20.728;2023-03-01T02:03:55;65.73;;;26.80;;
17983;SDS011;9117;52.420;20.728;2023-03-01T02:06:26;67.07;;;26.77;;
17983;SDS011;9117;52.420;20.728;2023-03-01T02:08:57;69.03;;;27.63;;
17983;SDS011;9117;52.420;20.728;2023-03-01T02:11:29;70.37;;;25.97;;
17983;SDS011;9117;52.420;20.728;2023-03-01T02:13:59;67.27;;;25.87;;
17983;SDS011;9117;52.420;20.728;2023-03-01T02:16:29;77.33;;;28.27;;
17983;SDS011;9117;52.420;20.728;2023-03-01T02:18:58;70.40;;;28.93;;
17983;SDS011;9117;52.420;20.728;2023-03-01T02:21:30;75.73;;;29.20;;
17983;SDS011;9117;52.420;20.728;2023-03-01T02:24:07;82.93;;;31.17;;
17983;SDS011;9117;52.420;20.728;2023-03-01T02:26:48;68.27;;;28.00;;
17983;SDS011;9117;52.420;20.728;2023-03-01T02:29:21;67.83;;;27.80;;
17983;SDS011;9117;52.420;20.728;2023-03-01T02:31:50;62.10;;;26.00;;
17983;SDS011;9117;52.420;20.728;2023-03-01T02:34:23;78.50;;;28.37;;
17983;SDS011;9117;52.420;20.728;2023-03-01T02:36:53;76.20;;;28.00;;
17983;SDS011;9117;52.420;20.728;2023-03-01T02:39:25;66.30;;;24.90;;
17983;SDS011;9117;52.420;20.728;2023-03-01T02:41:56;63.63;;;24.07;;
17983;SDS011;9117;52.420;20.728;2023-03-01T02:44:26;67.97;;;24.43;;
17983;SDS011;9117;52.420;20.728;2023-03-01T02:46:55;62.90;;;24.60;;
17983;SDS011;9117;52.420;20.728;2023-03-01T02:49:25;67.03;;;26.60;;
17983;SDS011;9117;52.420;20.728;2023-03-01T02:52:04;64.83;;;26.63;;
17983;SDS011;9117;52.420;20.728;2023-03-01T02:54:49;69.73;;;26.87;;
17983;SDS011;9117;52.420;20.728;2023-03-01T02:57:23;69.67;;;27.47;;
17983;SDS011;9117;52.420;20.728;2023-03-01T02:59:55;69.47;;;24.70;;
17983;SDS011;9117;52.420;20.728;2023-03-01T03:02:27;63.90;;;25.43;;
17983;SDS011;9117;52.420;20.728;2023-03-01T03:05:07;76.00;;;26.70;;
17983;SDS011;9117;52.420;20.728;2023-03-01T03:07:38;67.40;;;23.17;;
17983;SDS011;9117;52.420;20.728;2023-03-01T03:10:09;72.20;;;25.53;;
17983;SDS011;9117;52.420;20.728;2023-03-01T03:12:39;63.40;;;26.30;;
17983;SDS011;9117;52.420;20.728;2023-03-01T03:15:09;71.57;;;27.43;;
17983;SDS011;9117;52.420;20.728;2023-03-01T03:17:39;66.57;;;27.83;;
17983;SDS011;9117;52.420;20.728;2023-03-01T03:20:12;71.70;;;25.80;;
17983;SDS011;9117;52.420;20.728;2023-03-01T03:22:45;72.47;;;27.20;;
17983;SDS011;9117;52.420;20.728;2023-03-01T03:25:14;70.73;;;24.73;;
17983;SDS011;9117;52.420;20.728;2023-03-01T03:27:43;68.97;;;25.83;;
17983;SDS011;9117;52.420;20.728;2023-03-01T03:30:15;57.67;;;24.83;;
17983;SDS011;9117;52.420;20.728;2023-03-01T03:32:45;77.23;;;24.97;;
17983;SDS011;9117;52.420;20.728;2023-03-01T03:35:19;64.53;;;24.13;;
17983;SDS011;9117;52.420;20.728;2023-03-01T03:37:48;66.90;;;24.10;;
17983;SDS011;9117;52.420;20.728;2023-03-01T03:40:29;55.70;;;22.57;;
17983;SDS011;9117;52.420;20.728;2023-03-01T03:42:58;58.43;;;22.40;;
17983;SDS011;9117;52.420;20.728;2023-03-01T03:45:28;64.67;;;25.83;;
17983;SDS011;9117;52.420;20.728;2023-03-01T03:47:59;62.20;;;24.20;;
17983;SDS011;9117;52.420;20.728;2023-03-01T03:50:28;76.00;;;25.33;;
17983;SDS011;9117;52.420;20.728;2023-03-01T03:52:56;67.23;;;25.57;;
17983;SDS011;9117;52.420;20.728;2023-03-01T03:55:24;64.10;;;22.50;;
17983;SDS011;9117;52.420;20.728;2023-03-01T03:57:57;77.07;;;27.47;;
17983;SDS011;9117;52.420;20.728;2023-03-01T04:00:30;60.43;;;26.37;;
17983;SDS011;9117;52.420;20.728;2023-03-01T04:02:58;64.60;;;26.47;;
17983;SDS011;9117;52.420;20.728;2023-03-01T04:05:27;60.90;;;24.60;;
17983;SDS011;9117;52.420;20.728;2023-03-01T04:07:55;69.60;;;25.67;;
17983;SDS011;9117;52.420;20.728;2023-03-01T04:10:29;64.97;;;25.47;;
17983;SDS011;9117;52.420;20.728;2023-03-01T04:12:58;64.80;;;23.77;;
17983;SDS011;9117;52.420;20.728;2023-03-01T04:15:26;72.00;;;25.73;;
17983;SDS011;9117;52.420;20.728;2023-03-01T04:17:56;71.37;;;24.23;;
17983;SDS011;9117;52.420;20.728;2023-03-01T04:20:25;70.63;;;24.23;;
17983;SDS011;9117;52.420;20.728;2023-03-01T04:22:59;59.83;;;24.10;;
17983;SDS011;9117;52.420;20.728;2023-03-01T04:25:37;68.47;;;27.03;;
17983;SDS011;9117;52.420;20.728;2023-03-01T04:28:06;67.47;;;26.33;;
17983;SDS011;9117;52.420;20.728;2023-03-01T04:30:35;66.83;;;26.83;;
17983;SDS011;9117;52.420;20.728;2023-03-01T04:33:05;61.60;;;23.53;;
17983;SDS011;9117;52.420;20.728;2023-03-01T04:35:36;66.40;;;25.90;;
17983;SDS011;9117;52.420;20.728;2023-03-01T04:38:05;64.20;;;26.20;;
17983;SDS011;9117;52.420;20.728;2023-03-01T04:40:33;61.93;;;25.17;;
17983;SDS011;9117;52.420;20.728;2023-03-01T04:43:02;61.60;;;25.30;;
17983;SDS011;9117;52.420;20.728;2023-03-01T04:45:31;70.30;;;23.97;;
17983;SDS011;9117;52.420;20.728;2023-03-01T04:48:02;64.73;;;24.83;;
17983;SDS011;9117;52.420;20.728;2023-03-01T04:50:32;60.93;;;22.83;;
17983;SDS011;9117;52.420;20.728;2023-03-01T04:53:00;56.37;;;23.17;;
17983;SDS011;9117;52.420;20.728;2023-03-01T04:55:28;60.67;;;23.53;;
17983;SDS011;9117;52.420;20.728;2023-03-01T04:57:57;60.03;;;23.93;;
17983;SDS011;9117;52.420;20.728;2023-03-01T05:00:26;66.13;;;24.30;;
17983;SDS011;9117;52.420;20.728;2023-03-01T05:02:55;56.70;;;21.07;;
17983;SDS011;9117;52.420;20.728;2023-03-01T05:05:26;58.30;;;22.80;;
17983;SDS011;9117;52.420;20.728;2023-03-01T05:07:57;62.37;;;22.07;;
17983;SDS011;9117;52.420;20.728;2023-03-01T05:10:27;61.10;;;21.53;;
17983;SDS011;9117;52.420;20.728;2023-03-01T05:12:57;62.53;;;23.93;;
17983;SDS011;9117;52.420;20.728;2023-03-01T05:15:27;61.07;;;22.53;;
17983;SDS011;9117;52.420;20.728;2023-03-01T05:17:58;57.60;;;21.10;;
17983;SDS011;9117;52.420;20.728;2023-03-01T05:20:27;55.37;;;22.17;;
17983;SDS011;9117;52.420;20.728;2023-03-01T05:22:58;60.50;;;23.73;;
17983;SDS011;9117;52.420;20.728;2023-03-01T05:25:32;60.80;;;23.00;;
17983;SDS011;9117;52.420;20.728;2023-03-01T05:28:01;55.37;;;21.00;;
17983;SDS011;9117;52.420;20.728;2023-03-01T05:30:31;48.33;;;20.20;;
17983;SDS011;9117;52.420;20.728;2023-03-01T05:33:00;59.80;;;22.27;;
17983;SDS011;9117;52.420;20.728;2023-03-01T05:35:29;54.93;;;22.13;;
17983;SDS011;9117;52.420;20.728;2023-03-01T05:38:01;65.60;;;23.23;;
17983;SDS011;9117;52.420;20.728;2023-03-01T05:40:29;67.13;;;25.00;;
17983;SDS011;9117;52.420;20.728;2023-03-01T05:42:57;66.10;;;24.70;;
17983;SDS011;9117;52.420;20.728;2023-03-01T05:45:26;67.80;;;24.70;;
17983;SDS011;9117;52.420;20.728;2023-03-01T05:47:54;62.60;;;24.97;;
17983;SDS011;9117;52.420;20.728;2023-03-01T05:50:23;64.07;;;24.40;;
17983;SDS011;9117;52.420;20.728;2023-03-01T05:52:56;62.87;;;23.77;;
17983;SDS011;9117;52.420;20.728;2023-03-01T05:55:28;62.37;;;23.90;;
17983;SDS011;9117;52.420;20.728;2023-03-01T05:57:58;66.30;;;23.13;;
17983;SDS011;9117;52.420;20.728;2023-03-01T06:00:27;65.00;;;23.83;;
17983;SDS011;9117;52.420;20.728;2023-03-01T06:02:56;60.40;;;23.17;;
17983;SDS011;9117;52.420;20.728;2023-03-01T06:05:26;57.90;;;23.87;;
17983;SDS011;9117;52.420;20.728;2023-03-01T06:07:55;69.73;;;27.30;;
17983;SDS011;9117;52.420;20.728;2023-03-01T06:10:25;71.10;;;27.83;;
17983;SDS011;9117;52.420;20.728;2023-03-01T06:12:55;60.57;;;22.97;;
17983;SDS011;9117;52.420;20.728;2023-03-01T06:15:24;65.07;;;24.80;;
17983;SDS011;9117;52.420;20.728;2023-03-01T06:17:53;65.83;;;25.73;;
17983;SDS011;9117;52.420;20.728;2023-03-01T06:20:26;61.20;;;23.70;;
17983;SDS011;9117;52.420;20.728;2023-03-01T06:22:55;58.57;;;23.10;;
17983;SDS011;9117;52.420;20.728;2023-03-01T06:25:24;58.93;;;21.73;;
17983;SDS011;9117;52.420;20.728;2023-03-01T06:27:55;59.80;;;23.93;;
17983;SDS011;9117;52.420;20.728;2023-03-01T06:30:24;60.97;;;24.73;;
17983;SDS011;9117;52.420;20.728;2023-03-01T06:32:53;60.63;;;23.17;;
17983;SDS011;9117;52.420;20.728;2023-03-01T06:35:27;58.53;;;23.70;;
17983;SDS011;9117;52.420;20.728;2023-03-01T06:37:57;57.17;;;22.47;;
17983;SDS011;9117;52.420;20.728;2023-03-01T06:40:27;62.80;;;22.93;;
17983;SDS011;9117;52.420;20.728;2023-03-01T06:42:57;65.90;;;24.03;;
17983;SDS011;9117;52.420;20.728;2023-03-01T06:45:25;66.20;;;25.80;;
17983;SDS011;9117;52.420;20.728;2023-03-01T06:48:00;62.27;;;26.50;;
17983;SDS011;9117;52.420;20.728;2023-03-01T06:50:29;62.93;;;23.50;;
17983;SDS011;9117;52.420;20.728;2023-03-01T06:52:58;68.90;;;26.10;;
17983;SDS011;9117;52.420;20.728;2023-03-01T06:55:26;63.80;;;23.10;;
17983;SDS011;9117;52.420;20.728;2023-03-01T06:57:54;66.27;;;24.77;;
17983;SDS011;9117;52.420;20.728;2023-03-01T07:00:24;65.00;;;24.37;;
17983;SDS011;9117;52.420;20.728;2023-03-01T07:02:53;70.07;;;26.97;;
17983;SDS011;9117;52.420;20.728;2023-03-01T07:05:21;70.67;;;29.30;;
17983;SDS011;9117;52.420;20.728;2023-03-01T07:07:49;68.40;;;25.40;;
17983;SDS011;9117;52.420;20.728;2023-03-01T07:10:18;70.57;;;28.03;;
17983;SDS011;9117;52.420;20.728;2023-03-01T07:12:46;67.43;;;25.67;;
17983;SDS011;9117;52.420;20.728;2023-03-01T07:15:15;63.90;;;25.63;;
17983;SDS011;9117;52.420;20.728;2023-03-01T07:17:44;69.60;;;25.97;;
17983;SDS011;9117;52.420;20.728;2023-03-01T07:20:14;59.27;;;24.73;;
17983;SDS011;9117;52.420;20.728;2023-03-01T07:22:42;58.80;;;24.97;;
17983;SDS011;9117;52.420;20.728;2023-03-01T07:25:10;71.17;;;25.50;;
17983;SDS011;9117;52.420;20.728;2023-03-01T07:27:38;68.20;;;26.83;;
17983;SDS011;9117;52.420;20.728;2023-03-01T07:30:07;70.30;;;26.70;;
17983;SDS011;9117;52.420;20.728;2023-03-01T07:32:37;70.83;;;27.17;;
17983;SDS011;9117;52.420;20.728;2023-03-01T07:35:06;66.87;;;25.37;;
17983;SDS011;9117;52.420;20.728;2023-03-01T07:37:35;73.27;;;24.40;;
17983;SDS011;9117;52.420;20.728;2023-03-01T07:40:03;65.03;;;25.77;;
17983;SDS011;9117;52.420;20.728;2023-03-01T07:42:32;63.63;;;25.27;;
17983;SDS011;9117;52.420;20.728;2023-03-01T07:45:00;71.00;;;25.07;;
17983;SDS011;9117;52.420;20.728;2023-03-01T07:47:29;71.27;;;25.70;;
17983;SDS011;9117;52.420;20.728;2023-03-01T07:49:58;64.57;;;25.40;;
17983;SDS011;9117;52.420;20.728;2023-03-01T07:52:27;62.20;;;24.47;;
17983;SDS011;9117;52.420;20.728;2023-03-01T07:54:55;70.13;;;26.77;;
17983;SDS011;9117;52.420;20.728;2023-03-01T07:57:24;67.27;;;25.40;;
17983;SDS011;9117;52.420;20.728;2023-03-01T07:59:52;65.67;;;25.53;;
17983;SDS011;9117;52.420;20.728;2023-03-01T08:02:21;61.10;;;25.10;;
17983;SDS011;9117;52.420;20.728;2023-03-01T08:04:49;71.13;;;26.53;;
17983;SDS011;9117;52.420;20.728;2023-03-01T08:07:18;62.27;;;24.97;;
17983;SDS011;9117;52.420;20.728;2023-03-01T08:09:46;67.53;;;25.23;;
17983;SDS011;9117;52.420;20.728;2023-03-01T08:12:15;58.43;;;22.00;;
17983;SDS011;9117;52.420;20.728;2023-03-01T08:14:43;62.20;;;24.23;;
17983;SDS011;9117;52.420;20.728;2023-03-01T08:17:13;60.70;;;23.67;;
17983;SDS011;9117;52.420;20.728;2023-03-01T08:19:42;59.10;;;22.30;;
17983;SDS011;9117;52.420;20.728;2023-03-01T08:22:11;56.93;;;23.00;;
17983;SDS011;9117;52.420;20.728;2023-03-01T08:24:40;59.03;;;22.30;;
17983;SDS011;9117;52.420;20.728;2023-03-01T08:27:08;61.60;;;25.53;;
17983;SDS011;9117;52.420;20.728;2023-03-01T08:29:38;60.50;;;24.10;;
17983;SDS011;9117;52.420;20.728;2023-03-01T08:32:06;50.27;;;22.10;;
17983;SDS011;9117;52.420;20.728;2023-03-01T08:34:35;48.93;;;21.27;;
17983;SDS011;9117;52.420;20.728;2023-03-01T08:37:03;53.10;;;22.17;;
17983;SDS011;9117;52.420;20.728;2023-03-01T08:39:31;51.40;;;22.10;;
17983;SDS011;9117;52.420;20.728;2023-03-01T08:42:01;52.67;;;22.17;;
17983;SDS011;9117;52.420;20.728;2023-03-01T08:44:29;50.10;;;22.27;;
17983;SDS011;9117;52.420;20.728;2023-03-01T08:46:57;56.47;;;22.33;;
17983;SDS011;9117;52.420;20.728;2023-03-01T08:49:26;52.93;;;23.23;;
17983;SDS011;9117;52.420;20.728;2023-03-01T08:51:54;50.43;;;21.20;;
17983;SDS011;9117;52.420;20.728;2023-03-01T08:54:22;45.97;;;20.63;;
17983;SDS011;9117;52.420;20.728;2023-03-01T08:56:50;54.70;;;21.97;;
17983;SDS011;9117;52.420;20.728;2023-03-01T08:59:20;55.43;;;23.83;;
17983;SDS011;9117;52.420;20.728;2023-03-01T09:01:48;54.13;;;22.43;;
17983;SDS011;9117;52.420;20.728;2023-03-01T09:04:16;52.77;;;21.73;;
17983;SDS011;9117;52.420;20.728;2023-03-01T09:06:44;44.20;;;18.80;;
17983;SDS011;9117;52.420;20.728;2023-03-01T09:09:13;50.70;;;21.83;;
17983;SDS011;9117;52.420;20.728;2023-03-01T09:11:43;44.80;;;21.13;;
17983;SDS011;9117;52.420;20.728;2023-03-01T09:14:12;54.13;;;21.77;;
17983;SDS011;9117;52.420;20.728;2023-03-01T09:16:43;48.40;;;20.30;;
17983;SDS011;9117;52.420;20.728;2023-03-01T09:19:11;48.87;;;20.60;;
17983;SDS011;9117;52.420;20.728;2023-03-01T09:21:39;46.23;;;19.73;;
17983;SDS011;9117;52.420;20.728;2023-03-01T09:24:14;60.93;;;22.00;;
17983;SDS011;9117;52.420;20.728;2023-03-01T09:26:42;48.07;;;20.77;;
17983;SDS011;9117;52.420;20.728;2023-03-01T09:29:14;48.50;;;20.67;;
17983;SDS011;9117;52.420;20.728;2023-03-01T09:31:45;48.50;;;21.83;;
17983;SDS011;9117;52.420;20.728;2023-03-01T09:34:13;50.53;;;20.67;;
17983;SDS011;9117;52.420;20.728;2023-03-01T09:36:42;46.53;;;21.00;;
17983;SDS011;9117;52.420;20.728;2023-03-01T09:39:10;45.67;;;18.63;;
17983;SDS011;9117;52.420;20.728;2023-03-01T09:41:44;47.90;;;21.00;;
17983;SDS011;9117;52.420;20.728;2023-03-01T09:44:26;48.97;;;19.47;;
17983;SDS011;9117;52.420;20.728;2023-03-01T09:46:59;50.07;;;21.57;;
17983;SDS011;9117;52.420;20.728;2023-03-01T09:49:29;49.07;;;20.70;;
17983;SDS011;9117;52.420;20.728;2023-03-01T09:52:00;52.80;;;22.90;;
17983;SDS011;9117;52.420;20.728;2023-03-01T09:54:36;48.53;;;20.47;;
17983;SDS011;9117;52.420;20.728;2023-03-01T09:57:06;47.03;;;19.60;;
17983;SDS011;9117;52.420;20.728;2023-03-01T09:59:47;49.17;;;21.13;;
17983;SDS011;9117;52.420;20.728;2023-03-01T10:02:26;49.20;;;19.67;;
17983;SDS011;9117;52.420;20.728;2023-03-01T10:05:00;48.97;;;22.30;;
17983;SDS011;9117;52.420;20.728;2023-03-01T10:07:42;51.70;;;22.60;;
17983;SDS011;9117;52.420;20.728;2023-03-01T10:10:17;50.23;;;21.67;;
17983;SDS011;9117;52.420;20.728;2023-03-01T10:12:55;53.43;;;21.67;;
17983;SDS011;9117;52.420;20.728;2023-03-01T10:15:25;45.83;;;20.47;;
17983;SDS011;9117;52.420;20.728;2023-03-01T10:18:04;48.33;;;20.20;;
17983;SDS011;9117;52.420;20.728;2023-03-01T10:20:41;45.50;;;19.60;;
17983;SDS011;9117;52.420;20.728;2023-03-01T10:23:13;57.10;;;21.23;;
17983;SDS011;9117;52.420;20.728;2023-03-01T10:25:44;45.03;;;21.40;;
17983;SDS011;9117;52.420;20.728;2023-03-01T10:28:20;43.30;;;18.83;;
17983;SDS011;9117;52.420;20.728;2023-03-01T10:30:57;44.90;;;20.00;;
17983;SDS011;9117;52.420;20.728;2023-03-01T10:33:28;45.13;;;19.60;;
17983;SDS011;9117;52.420;20.728;2023-03-01T10:35:59;45.87;;;19.77;;
17983;SDS011;9117;52.420;20.728;2023-03-01T10:38:27;48.73;;;20.40;;
17983;SDS011;9117;52.420;20.728;2023-03-01T10:40:59;43.27;;;19.87;;
17983;SDS011;9117;52.420;20.728;2023-03-01T10:43:40;46.23;;;19.27;;
17983;SDS011;9117;52.420;20.728;2023-03-01T10:46:21;46.70;;;18.17;;
17983;SDS011;9117;52.420;20.728;2023-03-01T10:51:43;45.37;;;20.23;;
17983;SDS011;9117;52.420;20.728;2023-03-01T10:54:16;47.90;;;21.17;;
17983;SDS011;9117;52.420;20.728;2023-03-01T10:56:46;45.23;;;19.73;;
17983;SDS011;9117;52.420;20.728;2023-03-01T10:59:22;44.67;;;20.83;;
17983;SDS011;9117;52.420;20.728;2023-03-01T11:02:04;49.37;;;20.57;;
17983;SDS011;9117;52.420;20.728;2023-03-01T11:05:02;42.77;;;20.00;;
17983;SDS011;9117;52.420;20.728;2023-03-01T11:07:47;39.33;;;18.03;;
17983;SDS011;9117;52.420;20.728;2023-03-01T11:10:17;46.03;;;19.83;;
17983;SDS011;9117;52.420;20.728;2023-03-01T11:12:47;42.17;;;19.93;;
17983;SDS011;9117;52.420;20.728;2023-03-01T11:15:20;44.50;;;20.00;;
17983;SDS011;9117;52.420;20.728;2023-03-01T11:17:51;43.33;;;18.90;;
17983;SDS011;9117;52.420;20.728;2023-03-01T11:20:35;51.10;;;19.93;;
17983;SDS011;9117;52.420;20.728;2023-03-01T11:23:05;48.77;;;19.10;;
17983;SDS011;9117;52.420;20.728;2023-03-01T11:25:37;42.50;;;20.30;;
17983;SDS011;9117;52.420;20.728;2023-03-01T11:28:10;43.17;;;20.27;;
17983;SDS011;9117;52.420;20.728;2023-03-01T11:30:43;42.67;;;19.03;;
17983;SDS011;9117;52.420;20.728;2023-03-01T11:33:34;42.07;;;19.17;;
17983;SDS011;9117;52.420;20.728;2023-03-01T11:36:11;37.13;;;19.13;;
17983;SDS011;9117;52.420;20.728;2023-03-01T11:38:47;43.80;;;20.07;;
17983;SDS011;9117;52.420;20.728;2023-03-01T11:41:16;41.83;;;20.43;;
17983;SDS011;9117;52.420;20.728;2023-03-01T11:43:49;43.93;;;20.67;;
17983;SDS011;9117;52.420;20.728;2023-03-01T11:49:25;44.30;;;20.90;;
17983;SDS011;9117;52.420;20.728;2023-03-01T11:52:15;46.53;;;19.27;;
17983;SDS011;9117;52.420;20.728;2023-03-01T11:54:53;39.57;;;19.53;;
17983;SDS011;9117;52.420;20.728;2023-03-01T11:57:39;43.47;;;21.47;;
17983;SDS011;9117;52.420;20.728;2023-03-01T12:03:26;43.37;;;19.80;;
17983;SDS011;9117;52.420;20.728;2023-03-01T12:06:20;45.93;;;20.37;;
17983;SDS011;9117;52.420;20.728;2023-03-01T12:09:05;48.33;;;20.17;;
17983;SDS011;9117;52.420;20.728;2023-03-01T12:11:49;44.87;;;20.10;;
17983;SDS011;9117;52.420;20.728;2023-03-01T12:14:34;43.27;;;20.10;;
17983;SDS011;9117;52.420;20.728;2023-03-01T12:17:25;43.07;;;19.87;;
17983;SDS011;9117;52.420;20.728;2023-03-01T12:20:20;38.77;;;18.87;;
17983;SDS011;9117;52.420;20.728;2023-03-01T12:22:57;47.07;;;19.53;;
17983;SDS011;9117;52.420;20.728;2023-03-01T12:25:50;36.90;;;18.37;;
17983;SDS011;9117;52.420;20.728;2023-03-01T12:28:34;37.37;;;17.57;;
17983;SDS011;9117;52.420;20.728;2023-03-01T12:31:29;41.87;;;18.83;;
17983;SDS011;9117;52.420;20.728;2023-03-01T12:34:27;39.77;;;17.80;;
17983;SDS011;9117;52.420;20.728;2023-03-01T12:37:11;35.00;;;16.83;;
17983;SDS011;9117;52.420;20.728;2023-03-01T12:40:03;37.20;;;17.30;;
17983;SDS011;9117;52.420;20.728;2023-03-01T12:43:10;37.17;;;17.87;;
17983;SDS011;9117;52.420;20.728;2023-03-01T12:45:50;38.47;;;17.73;;
17983;SDS011;9117;52.420;20.728;2023-03-01T12:48:31;38.77;;;18.37;;
17983;SDS011;9117;52.420;20.728;2023-03-01T12:51:08;37.83;;;18.20;;
17983;SDS011;9117;52.420;20.728;2023-03-01T12:53:41;38.73;;;17.30;;
17983;SDS011;9117;52.420;20.728;2023-03-01T12:56:13;38.93;;;17.17;;
17983;SDS011;9117;52.420;20.728;2023-03-01T12:58:49;36.17;;;17.07;;
17983;SDS011;9117;52.420;20.728;2023-03-01T13:01:31;37.90;;;17.40;;
17983;SDS011;9117;52.420;20.728;2023-03-01T13:04:08;35.87;;;18.20;;
17983;SDS011;9117;52.420;20.728;2023-03-01T13:06:47;37.33;;;17.23;;
17983;SDS011;9117;52.420;20.728;2023-03-01T13:09:25;36.90;;;17.50;;
17983;SDS011;9117;52.420;20.728;2023-03-01T13:11:59;36.57;;;18.83;;
17983;SDS011;9117;52.420;20.728;2023-03-01T13:14:37;29.20;;;16.20;;
17983;SDS011;9117;52.420;20.728;2023-03-01T13:17:30;34.50;;;15.67;;
17983;SDS011;9117;52.420;20.728;2023-03-01T13:20:00;37.00;;;16.70;;
17983;SDS011;9117;52.420;20.728;2023-03-01T13:22:31;38.63;;;17.17;;
17983;SDS011;9117;52.420;20.728;2023-03-01T13:25:14;40.27;;;16.83;;
17983;SDS011;9117;52.420;20.728;2023-03-01T13:27:44;33.23;;;17.60;;
17983;SDS011;9117;52.420;20.728;2023-03-01T13:39:27;36.10;;;18.63;;
17983;SDS011;9117;52.420;20.728;2023-03-01T13:42:01;32.07;;;17.47;;
17983;SDS011;9117;52.420;20.728;2023-03-01T13:44:30;35.10;;;18.07;;
17983;SDS011;9117;52.420;20.728;2023-03-01T13:47:14;37.37;;;18.57;;
17983;SDS011;9117;52.420;20.728;2023-03-01T13:49:46;40.30;;;24.17;;
17983;SDS011;9117;52.420;20.728;2023-03-01T13:52:23;33.37;;;18.90;;
17983;SDS011;9117;52.420;20.728;2023-03-01T13:55:14;34.93;;;18.17;;
17983;SDS011;9117;52.420;20.728;2023-03-01T13:57:46;35.47;;;18.23;;
17983;SDS011;9117;52.420;20.728;2023-03-01T14:00:34;35.80;;;20.00;;
17983;SDS011;9117;52.420;20.728;2023-03-01T14:03:08;38.27;;;21.40;;
17983;SDS011;9117;52.420;20.728;2023-03-01T14:05:39;38.57;;;18.33;;
17983;SDS011;9117;52.420;20.728;2023-03-01T14:08:21;37.30;;;18.10;;
17983;SDS011;9117;52.420;20.728;2023-03-01T14:10:56;36.00;;;19.10;;
17983;SDS011;9117;52.420;20.728;2023-03-01T14:13:58;33.70;;;16.83;;
17983;SDS011;9117;52.420;20.728;2023-03-01T14:16:38;32.63;;;17.50;;
17983;SDS011;9117;52.420;20.728;2023-03-01T14:19:15;32.77;;;16.53;;
17983;SDS011;9117;52.420;20.728;2023-03-01T14:21:59;30.33;;;16.67;;
17983;SDS011;9117;52.420;20.728;2023-03-01T14:24:32;27.83;;;14.77;;
17983;SDS011;9117;52.420;20.728;2023-03-01T14:27:02;28.80;;;15.00;;
17983;SDS011;9117;52.420;20.728;2023-03-01T14:29:33;30.33;;;16.60;;
17983;SDS011;9117;52.420;20.728;2023-03-01T14:32:10;31.15;;;16.38;;
17983;SDS011;9117;52.420;20.728;2023-03-01T14:34:45;32.13;;;17.90;;
17983;SDS011;9117;52.420;20.728;2023-03-01T14:37:19;29.13;;;16.75;;
17983;SDS011;9117;52.420;20.728;2023-03-01T14:39:49;34.80;;;17.48;;
17983;SDS011;9117;52.420;20.728;2023-03-01T14:42:17;29.98;;;16.88;;
17983;SDS011;9117;52.420;20.728;2023-03-01T14:44:47;34.33;;;17.70;;
17983;SDS011;9117;52.420;20.728;2023-03-01T14:47:20;32.78;;;16.73;;
17983;SDS011;9117;52.420;20.728;2023-03-01T14:49:57;30.27;;;16.40;;
17983;SDS011;9117;52.420;20.728;2023-03-01T14:52:29;32.10;;;17.35;;
17983;SDS011;9117;52.420;20.728;2023-03-01T14:55:03;32.47;;;15.93;;
17983;SDS011;9117;52.420;20.728;2023-03-01T14:57:33;30.13;;;15.63;;
17983;SDS011;9117;52.420;20.728;2023-03-01T15:00:03;32.20;;;16.13;;
17983;SDS011;9117;52.420;20.728;2023-03-01T15:02:34;34.83;;;17.67;;
17983;SDS011;9117;52.420;20.728;2023-03-01T15:05:04;32.00;;;17.30;;
17983;SDS011;9117;52.420;20.728;2023-03-01T15:07:35;38.57;;;17.97;;
17983;SDS011;9117;52.420;20.728;2023-03-01T15:10:06;32.80;;;17.57;;